RLSO2: Arkansas River, Ralston, OK

                                SHEF ID:       RLSO2     Arkansas River at Ralston, OK
STATION TYPE:
Regulating: Stage = 16.00, Flow = 78729

PRECIP STAGE STAGE(2) RIV-FLOW AIR-TEMP BAT-LOAD
in ft ft cfs F volt
Ccp-Rev Ccp-Rev Ccp-Rev Ccp-Rev Ccp-Rev Ccp-Rev
(America/Chicago)
02/11 00:00 0.00 4.55 4.56 1608 43.52 12.31
02/11 01:00 0.00 4.55 4.59 1608 42.80 12.30
02/11 02:00 0.00 4.54 4.57 1593 42.44 12.29
02/11 03:00 0.00 4.54 4.58 1593 41.72 12.27
02/11 04:00 0.00 4.54 4.57 1593 41.00 12.27
02/11 05:00 0.00 4.54 4.58 1593 39.38 12.26
02/11 06:00 0.00 4.54 4.58 1593 38.30 12.25
02/11 07:00 0.00 4.54 4.55 1593 36.86 12.24
02/11 08:00 0.00 4.54 4.57 1593 38.84 12.24
02/11 09:00 0.00 4.54 4.56 1593 48.02 12.26
02/11 10:00 0.00 4.53 4.55 1577 53.24 12.37
02/11 11:00 0.00 4.51 4.52 1546 58.82 12.42
02/11 12:00 0.00 4.50 4.52 1531 63.32 12.57
02/11 13:00 0.00 4.50 4.54 1531 68.00 12.59
02/11 14:00 0.00 4.52 4.50 1562 69.62 12.56
02/11 15:00 0.00 4.52 4.53 1562 70.70 12.53
02/11 16:00 0.00 4.51 4.53 1546 70.34 12.50
02/11 17:00 0.00 4.51 4.53 1546 67.10 12.42
02/11 18:00 0.00 4.50 4.54 1531 59.72 12.41
02/11 19:00 0.00 4.51 4.53 1546 54.32 12.39
02/11 20:00 0.00 4.52 4.54 1562 50.54 12.37
02/11 21:00 0.00 4.51 4.54 1546 47.30 12.36
02/11 22:00 0.00 4.51 4.53 1546 44.06 12.35
02/11 23:00 0.00 4.51 4.55 1546 42.62 12.34
Data processed at Thu 12Feb2026 05:21 GMT

NOTICE: If you are parsing this page

Please convert to using our Data API. Starting early 2026 we will be migrating to: https://water.usace.army.mil with modern pages rendered in JavaScript. When this migration completes you will no longer be able to scrape this page! CWMSDataAPI (CDA)

Timeseries IDs (TSIDs)

TSIDs used from left to right in the data table
RALS.Precip-Inc.Total.1Hour.1Hour.Ccp-Rev
RALS.Stage.Inst.1Hour.0.Ccp-Rev
RALS.Stage-Alt.Inst.1Hour.0.Ccp-Rev
RALS.Flow.Inst.1Hour.0.Ccp-Rev
RALS.Temp-Air.Inst.1Hour.0.Ccp-Rev
RALS.Volt-Battery Load.Inst.1Hour.0.Ccp-Rev

                            

All information presented herein is the property of the government of the United States of America and may be revised or deleted at any time without prior notice. Dissemination of this information without the expressed written consent of the Public Affairs Office, Tulsa District U.S. Army Corps of Engineers is strictly prohibited. These data are gathered electronically and, as presented, have NOT undergone any form of quality control. These data are NOT guaranteed to be valid or correct.